Station: Act Pcs2

  Atmospheric Gas Attenuation - ITU Rec 676-11   --------------- db/100km ---------------
Date Time Temp RH % AH g/m3 Dew Point Wind Direction Speed kph Gust kph Barometer mB Rainfall Since 9am 24GHz 47GHz 76GHz 122GHz 134GHz 241GHz
22 21:50 7.5 66 5.29 1.7 4 7 1013.1 0 12.8 22.3 29.5 77.0 62.1 210.3
22 21:40 7.1 69 5.38 1.9 2 4 1013.1 0 13.0 22.6 30.0 78.3 63.5 215.3
22 21:30 7.3 69 5.45 2 2 6 1013.1 0 13.1 22.6 30.2 78.8 64.2 217.9
22 20:30 7 76 5.89 3 4 6 1013.1 0 14.1 23.4 32.1 83.7 70.2 238.7
22 20:20 7.2 76 5.97 3.2 4 7 1013.1 0 14.2 23.5 32.3 84.3 71.0 241.7
22 20:10 7.6 72 5.8 3 6 9 1013.1 0 13.9 23.1 31.5 82.1 68.5 232.8
22 20:00 7.4 73 5.81 2.9 6 7 1013.1 0 13.9 23.2 31.6 82.4 68.8 233.8
22 19:50 7.2 74 5.81 3 4 6 1013.1 0 13.9 23.2 31.7 82.7 69.0 234.4
22 19:40 7.2 77 6.05 3.5 4 6 1013.1 0 14.4 23.6 32.6 85.2 72.1 245.4
22 19:30 7.4 75 5.97 3.3 4 4 1013.1 0 14.2 23.4 32.2 84.1 70.9 241.1
22 19:20 7.4 76 6.05 3.4 4 4 1013.1 0 14.4 23.6 32.5 85.0 71.9 244.8
22 19:10 7.6 74 5.96 3.2 2 4 1013.1 0 14.2 23.4 32.1 83.8 70.5 240.0
22 19:00 7.9 72 5.92 3.2 2 4 1013.1 0 14.1 23.2 31.8 83.1 69.8 237.3
22 18:50 8.2 70 5.86 3 6 7 1013.1 0 14.0 23.1 31.5 82.1 68.7 233.7
22 18:40 8 70 5.79 2.9 4 7 1013.1 0 13.8 23.0 31.3 81.6 68.0 231.2
22 18:30 7.9 71 5.83 3 4 6 1013.1 0 13.9 23.1 31.5 82.1 68.6 233.3
22 17:50 8.2 71 5.95 3.3 6 7 1013.1 0 14.2 23.2 31.8 83.1 69.9 237.8
22 17:40 8.2 73 6.12 3.6 6 7 1013.1 0 14.5 23.5 32.5 84.8 72.1 245.5
22 17:30 8.3 73 6.16 3.7 6 7 1013.1 0 14.6 23.5 32.6 85.2 72.5 247.0
22 17:20 8.5 72 6.15 3.8 9 11 1013.1 0 14.6 23.4 32.5 84.8 72.2 245.9
22 17:10 8.6 73 6.28 4 6 9 1013.1 0 14.8 23.6 32.9 86.1 73.8 251.5
22 17:00 8.8 72 6.27 4.1 6 7 1013.1 0 14.8 23.5 32.8 85.8 73.4 250.4
22 16:50 9.2 70 6.25 4 7 7 1013.1 0 14.8 23.4 32.6 85.1 72.8 248.2
22 16:40 9.4 69 6.24 4.1 6 7 1013.1 0 14.7 23.3 32.5 84.8 72.5 247.2
22 16:30 9.6 69 6.32 4.3 7 9 1013.1 0 14.9 23.4 32.7 85.4 73.3 250.1
22 16:20 9.7 69 6.36 4.4 6 9 1013.1 0 15.0 23.4 32.8 85.7 73.8 251.6
22 16:10 10.1 69 6.53 4.7 4 6 1013.1 0 15.3 23.6 33.3 87.1 75.6 258.0
22 16:00 10.3 67 6.42 4.4 6 9 1013.1 0 15.1 23.4 32.8 85.7 74.0 252.4
22 15:50 10.3 66 6.32 4.2 7 11 1013.1 0 14.9 23.2 32.4 84.7 72.7 247.9
22 15:40 10.5 66 6.4 4.5 4 6 1013.1 0 15.0 23.3 32.6 85.3 73.5 250.9
22 15:30 10.8 63 6.23 4.1 6 7 1013.1 0 14.7 23.0 31.9 83.2 71.1 242.4
22 15:20 11.1 58 5.84 3.2 6 7 1013.1 0 13.8 22.3 30.3 79.0 66.0 224.5
22 15:10 10.8 59 5.83 3.2 6 7 1013.1 0 13.8 22.4 30.4 79.2 66.1 224.9
22 15:00 10.7 60 5.89 3.3 7 9 1013.1 0 13.9 22.5 30.6 79.9 66.9 227.8
22 14:50 11 60 6.01 3.6 7 13 1013.1 0 14.2 22.6 31.0 80.8 68.2 232.2
22 14:40 11.3 58 5.92 3.3 4 7 1013.1 0 14.0 22.4 30.5 79.6 66.8 227.4
22 14:30 10.9 61 6.07 3.8 6 6 1013.1 0 14.3 22.7 31.2 81.5 69.0 235.1
22 14:20 11.3 67 6.84 5.4 4 7 1013.1 0 15.9 23.8 34.0 88.9 78.3 267.9
22 14:10 12.1 67 7.19 6.2 6 9 1013.1 0 16.7 24.1 35.0 91.7 82.0 280.8
22 14:00 12.8 66 7.39 6.6 6 7 1013.1 0 17.1 24.2 35.5 92.9 83.8 287.3
22 13:50 12.5 65 7.15 6.1 6 6 1013.1 0 16.6 23.9 34.7 90.8 81.1 277.6
22 13:40 12.3 69 7.49 6.8 4 6 1013.1 0 17.3 24.5 36.1 94.6 85.7 293.7
22 13:30 11.6 72 7.48 6.7 4 6 1013.1 0 17.3 24.7 36.4 95.3 86.3 295.8
22 13:20 10.6 78 7.61 6.9 6 7 1013.1 0 17.6 25.2 37.4 97.9 89.1 305.6
22 13:10 10.4 77 7.42 6.6 6 6 1013.1 0 17.2 24.9 36.7 96.1 86.8 297.6
22 13:00 10.8 76 7.51 6.7 4 7 1013.1 0 17.4 25.0 36.9 96.6 87.6 300.2
22 12:50 10.8 77 7.61 6.9 6 6 1013.1 0 17.6 25.1 37.3 97.7 88.9 304.9
22 12:40 10.9 75 7.46 6.7 6 7 1013.1 0 17.3 24.9 36.6 95.9 86.8 297.5
22 12:30 11.5 71 7.33 6.4 4 6 1013.1 0 17.0 24.5 35.8 93.8 84.5 289.3
22 12:20 10.9 79 7.86 7.4 6 6 1013.1 0 18.1 25.5 38.2 100.2 92.1 316.1
22 12:10 9.9 81 7.56 6.9 4 6 1013.1 0 17.5 25.3 37.5 98.2 89.3 306.0
22 12:00 9.4 85 7.69 7.1 4 6 1013.1 0 17.8 25.7 38.3 100.3 91.6 314.1
22 11:50 9.1 87 7.72 7 4 6 1013.1 0 17.9 25.8 38.5 101.0 92.4 316.8
22 11:40 9.1 88 7.81 7.2 4 6 1013.1 0 18.1 26.0 38.9 102.0 93.6 321.1
22 11:30 8.8 90 7.84 7.2 4 6 1013.1 0 18.2 26.1 39.2 102.7 94.4 323.8
22 11:20 8.6 91 7.82 7.3 4 6 1013.1 0 18.2 26.1 39.2 102.8 94.4 323.6
22 11:10 8.5 91 7.77 7.1 4 9 1013.1 0 18.1 26.1 39.0 102.4 93.8 321.6
22 10:50 8.3 92 7.76 7.1 4 6 1013.1 0 18.0 26.1 39.1 102.5 93.9 322.0
22 10:00 7.6 99 7.98 7.4 2 4 1013.1 0 18.6 26.7 40.4 105.9 97.8 335.7
22 09:40 7.5 99 7.93 7.4 2 4 1013.1 0 18.4 26.6 40.2 105.5 97.3 333.7
22 09:30 7.4 99 7.88 7.3 2 4 1013.1 0 18.3 26.6 40.0 105.1 96.7 331.6
22 09:20 7.1 99 7.72 7 4 4 1013.1 0 18.0 26.4 39.5 103.6 94.8 325.0
22 09:10 6.9 100 7.7 6.9 4 6 1013.1 0 18.0 26.4 39.5 103.7 94.8 324.9
22 09:00 6.8 100 7.65 6.8 0 2 1013.1 0 17.9 26.4 39.4 103.3 94.2 322.9
22 08:50 6.6 99 7.48 6.5 0 2 1013.1 0 17.5 26.1 38.7 101.6 92.1 315.3
22 08:40 6.3 99 7.33 6.2 2 2 1013.1 0 17.2 26.0 38.3 100.3 90.3 309.2
22 08:30 6 99 7.19 5.9 2 4 1013.1 0 16.9 25.8 37.8 99.1 88.7 303.6
22 08:20 5.8 100 7.17 5.8 2 4 1013.1 0 16.9 25.8 37.8 99.1 88.7 303.4
22 08:10 5.7 100 7.12 5.7 2 6 1013.1 0 16.8 25.8 37.7 98.7 88.1 301.3
22 08:00 5.6 100 7.07 5.6 4 6 1013.1 0 16.7 25.7 37.5 98.2 87.5 299.3
22 07:50 5.5 100 7.03 5.5 2 4 1013.1 0 16.6 25.7 37.4 97.9 87.1 297.7
22 07:40 5.4 100 6.98 5.4 2 4 1013.1 0 16.5 25.6 37.2 97.5 86.5 295.6
22 07:30 5.4 100 6.98 5.4 2 4 1013.1 0 16.5 25.6 37.2 97.5 86.5 295.6
22 07:20 5.4 99 6.91 5.3 4 6 1013.1 0 16.3 25.5 36.9 96.7 85.5 292.2
22 07:10 5.3 100 6.94 5.3 2 6 1013.1 0 16.4 25.6 37.1 97.1 86.0 294.1
22 07:00 5.2 99 6.82 5.1 4 6 1013.1 0 16.1 25.4 36.6 95.9 84.5 288.6
22 06:50 5.1 99 6.78 5 6 7 1013.1 0 16.1 25.4 36.5 95.6 84.0 287.0
22 06:40 5.1 99 6.78 5 6 9 1013.1 0 16.1 25.4 36.5 95.6 84.0 287.0
22 06:30 5 100 6.8 5 6 6 1013.1 0 16.1 25.5 36.6 95.9 84.4 288.3
22 06:20 4.9 100 6.76 4.9 2 4 1013.1 0 16.0 25.4 36.5 95.6 84.0 286.8
22 06:10 4.9 99 6.69 4.8 2 6 1013.1 0 15.9 25.3 36.2 94.8 83.0 283.4
22 06:00 4.9 99 6.69 4.8 2 2 1013.1 0 15.9 25.3 36.2 94.8 83.0 283.4
22 05:50 4.9 99 6.69 4.7 2 2 1013.1 0 15.9 25.3 36.2 94.8 83.0 283.4
22 05:40 4.8 99 6.64 4.7 4 4 1013.1 0 15.8 25.2 36.1 94.4 82.4 281.3
22 05:30 4.7 99 6.6 4.6 2 6 1013.1 0 15.7 25.2 35.9 94.0 82.0 279.7
22 05:20 4.6 99 6.56 4.5 4 6 1013.1 0 15.6 25.2 35.8 93.7 81.5 278.1
22 05:10 4.4 99 6.47 4.3 7 11 1013.1 0 15.4 25.1 35.5 93.0 80.5 274.5
22 05:00 4.1 99 6.34 3.9 6 9 1013.1 0 15.2 24.9 35.1 91.9 79.0 269.2
22 04:50 3.7 98 6.11 3.4 0 2 1013.1 0 14.7 24.7 34.3 89.7 76.2 259.5
22 04:40 4 98 6.24 3.7 0 2 1013.1 0 14.9 24.8 34.7 90.9 77.7 264.7
22 04:30 4.4 98 6.4 4.1 2 4 1013.1 0 15.3 24.9 35.2 92.2 79.5 271.1
22 04:20 4.4 99 6.47 4.2 6 7 1013.1 0 15.4 25.1 35.5 93.0 80.5 274.5
22 04:10 4.4 98 6.4 4.1 7 9 1013.1 0 15.3 24.9 35.2 92.2 79.5 271.1
22 04:00 4.3 98 6.36 4 6 7 1013.1 0 15.2 24.9 35.1 91.8 79.1 269.5
22 03:50 4.3 98 6.36 4 4 7 1013.1 0 15.2 24.9 35.1 91.8 79.1 269.5
22 03:40 4.4 97 6.34 3.9 6 7 1013.1 0 15.1 24.8 35.0 91.5 78.7 268.2
22 03:30 4.5 96 6.32 3.9 4 6 1013.1 0 15.1 24.8 34.9 91.2 78.3 266.9
22 03:20 4.6 95 6.29 3.9 4 7 1013.1 0 15.0 24.7 34.7 90.7 77.8 265.1
22 03:10 4.6 95 6.29 3.8 4 6 1013.1 0 15.0 24.7 34.7 90.7 77.8 265.1
22 03:00 4.6 95 6.29 3.9 6 7 1013.1 0 15.0 24.7 34.7 90.7 77.8 265.1

Last Refresh: 23-Jul-2024 09:50:38

Bureau of Meteorology